createdAt,value
2023-01-21T00:01:44.737Z,35.72
2023-01-21T00:04:12.060Z,38.00
2023-01-21T00:06:39.306Z,36.88
2023-01-21T00:09:06.640Z,35.85
2023-01-21T00:11:33.868Z,37.78
2023-01-21T00:14:03.377Z,35.00
2023-01-21T00:16:32.753Z,34.05
2023-01-21T00:19:00.029Z,35.25
2023-01-21T00:21:29.554Z,31.30
2023-01-21T00:23:56.811Z,35.08
2023-01-21T00:26:24.093Z,34.60
2023-01-21T00:28:53.660Z,37.70
2023-01-21T00:31:23.396Z,34.25
2023-01-21T00:33:50.712Z,34.42
2023-01-21T00:36:18.610Z,40.28
2023-01-21T00:38:51.518Z,37.67
2023-01-21T00:41:18.788Z,36.28
2023-01-21T00:43:48.628Z,40.65
2023-01-21T00:46:16.431Z,40.00
2023-01-21T00:48:44.015Z,40.72
2023-01-21T00:51:11.804Z,46.42
2023-01-21T00:53:43.257Z,45.92
2023-01-21T00:56:12.576Z,40.92
2023-01-21T00:58:48.472Z,50.72
2023-01-21T01:01:21.622Z,50.10
2023-01-21T01:03:50.009Z,52.97
2023-01-21T01:06:23.084Z,55.97
2023-01-21T01:08:54.266Z,54.10
2023-01-21T01:11:22.253Z,52.20
2023-01-21T01:13:49.504Z,56.05
2023-01-21T01:16:17.267Z,53.95
2023-01-21T01:18:44.984Z,48.42
2023-01-21T01:21:16.999Z,56.25
2023-01-21T01:23:50.756Z,53.92
2023-01-21T01:26:20.027Z,61.65
2023-01-21T01:28:47.791Z,54.28
2023-01-21T01:31:17.218Z,55.63
2023-01-21T01:33:47.543Z,49.72
2023-01-21T01:36:20.577Z,49.80
2023-01-21T01:38:47.812Z,55.15
2023-01-21T01:41:18.372Z,56.35
2023-01-21T01:44:01.150Z,62.95
2023-01-21T01:46:38.905Z,61.65
2023-01-21T01:49:16.857Z,57.42
2023-01-21T01:51:57.503Z,56.03
2023-01-21T01:54:29.596Z,67.93
2023-01-21T01:57:00.244Z,64.78
2023-01-21T01:59:29.163Z,64.95
2023-01-21T02:02:01.886Z,61.15
2023-01-21T02:04:33.482Z,61.45
2023-01-21T02:07:00.796Z,60.85
2023-01-21T02:09:32.655Z,62.67
2023-01-21T02:12:02.260Z,58.17
2023-01-21T02:14:33.997Z,66.43
2023-01-21T02:17:29.751Z,71.03
2023-01-21T02:20:15.100Z,68.80
2023-01-21T02:22:48.397Z,65.32
2023-01-21T02:28:19.528Z,67.30
2023-01-21T02:31:12.726Z,71.18
2023-01-21T02:33:50.141Z,65.90
2023-01-21T02:36:41.894Z,72.75
2023-01-21T02:39:23.720Z,69.05
2023-01-21T02:42:10.128Z,73.25
2023-01-21T02:44:44.187Z,74.38
2023-01-21T02:47:32.415Z,71.80
2023-01-21T02:50:24.972Z,71.28
2023-01-21T02:53:00.277Z,64.47
2023-01-21T02:55:34.986Z,71.43
2023-01-21T02:58:14.119Z,71.72
2023-01-21T03:00:50.410Z,70.88
2023-01-21T03:03:52.287Z,68.30
2023-01-21T03:06:30.147Z,63.97
2023-01-21T03:09:10.945Z,67.90
2023-01-21T03:11:40.823Z,64.10
2023-01-21T03:14:42.390Z,65.90
2023-01-21T03:17:46.866Z,70.57
2023-01-21T03:20:29.050Z,71.75
2023-01-21T03:23:09.820Z,68.60
2023-01-21T03:25:41.113Z,58.47
2023-01-21T03:28:13.096Z,67.90
2023-01-21T03:30:45.526Z,62.85
2023-01-21T03:33:14.623Z,61.03
2023-01-21T03:35:45.530Z,69.47
2023-01-21T03:38:22.787Z,69.82
2023-01-21T03:41:10.955Z,60.65
2023-01-21T03:43:42.961Z,66.55
2023-01-21T03:46:19.630Z,63.13
2023-01-21T03:48:54.899Z,64.53
2023-01-21T03:51:27.700Z,60.90
2023-01-21T03:53:59.534Z,59.42
2023-01-21T03:56:27.770Z,63.00
2023-01-21T03:58:55.235Z,63.17
2023-01-21T04:01:22.804Z,63.15
2023-01-21T04:03:54.812Z,65.47
2023-01-21T04:06:24.504Z,67.65
2023-01-21T04:08:51.753Z,68.68
2023-01-21T04:11:19.063Z,60.92
2023-01-21T04:13:46.293Z,59.20
2023-01-21T04:16:13.648Z,66.38
2023-01-21T04:18:40.889Z,63.72
2023-01-21T04:21:08.318Z,63.70
2023-01-21T04:23:40.165Z,70.55
2023-01-21T04:26:07.790Z,69.90
2023-01-21T04:28:35.044Z,71.95
2023-01-21T04:31:04.882Z,69.95
2023-01-21T04:33:34.646Z,68.28
2023-01-21T04:36:01.913Z,73.28
2023-01-21T04:38:34.201Z,73.88
2023-01-21T04:41:01.498Z,69.50
2023-01-21T04:43:28.783Z,82.70
2023-01-21T04:45:56.213Z,75.00
2023-01-21T04:48:26.142Z,69.82
2023-01-21T04:50:53.393Z,78.50
2023-01-21T04:53:20.730Z,77.00
2023-01-21T04:55:50.564Z,76.90
2023-01-21T04:58:18.026Z,80.60
2023-01-21T05:00:47.411Z,74.10
2023-01-21T05:03:17.846Z,73.68
2023-01-21T05:05:45.153Z,79.80
2023-01-21T05:08:15.433Z,73.13
2023-01-21T05:10:45.521Z,75.30
2023-01-21T05:13:13.110Z,67.55
2023-01-21T05:15:42.622Z,85.22
2023-01-21T05:18:09.967Z,80.25
2023-01-21T05:20:37.209Z,76.60
2023-01-21T05:23:04.455Z,77.75
2023-01-21T05:25:31.707Z,79.40
2023-01-21T05:27:58.953Z,80.47
2023-01-21T05:30:26.374Z,79.32
2023-01-21T05:32:54.970Z,76.25
2023-01-21T05:35:25.560Z,88.82
2023-01-21T05:37:52.825Z,76.90
2023-01-21T05:40:20.486Z,80.80
2023-01-21T05:42:47.929Z,78.10
2023-01-21T05:45:17.819Z,74.88
2023-01-21T05:47:45.180Z,87.78
2023-01-21T05:50:13.123Z,89.05
2023-01-21T05:52:40.641Z,90.50
2023-01-21T05:55:08.527Z,83.95
2023-01-21T05:57:35.844Z,90.05
2023-01-21T06:00:03.405Z,79.45
2023-01-21T06:02:30.891Z,91.47
2023-01-21T06:04:58.140Z,85.35
2023-01-21T06:07:25.401Z,83.07
2023-01-21T06:09:52.709Z,90.47
2023-01-21T06:12:23.882Z,87.30
2023-01-21T06:14:52.043Z,87.05
2023-01-21T06:17:21.621Z,83.10
2023-01-21T06:19:48.972Z,75.65
2023-01-21T06:22:21.877Z,87.05
2023-01-21T06:24:51.222Z,92.10
2023-01-21T06:27:20.959Z,88.30
2023-01-21T06:29:48.266Z,78.80
2023-01-21T06:32:15.550Z,83.55
2023-01-21T06:34:45.177Z,84.28
2023-01-21T06:37:13.828Z,81.60
2023-01-21T06:39:41.358Z,93.18
2023-01-21T06:42:10.726Z,84.93
2023-01-21T06:44:37.966Z,81.32
2023-01-21T06:47:05.380Z,76.07
2023-01-21T06:49:37.495Z,87.05
2023-01-21T06:52:05.265Z,80.15
2023-01-21T06:54:32.757Z,81.65
2023-01-21T06:57:02.125Z,87.78
2023-01-21T06:59:29.513Z,90.95
2023-01-21T07:01:59.084Z,84.07
2023-01-21T07:04:27.321Z,74.72
2023-01-21T07:06:54.761Z,78.78
2023-01-21T07:09:22.320Z,82.50
2023-01-21T07:11:52.030Z,78.88
2023-01-21T07:14:19.323Z,77.43
2023-01-21T07:16:48.673Z,81.65
2023-01-21T07:19:15.894Z,86.28
2023-01-21T07:21:43.188Z,80.57
2023-01-21T07:24:10.504Z,78.22
2023-01-21T07:26:41.497Z,79.78
2023-01-21T07:29:11.291Z,85.93
2023-01-21T07:31:38.699Z,81.97
2023-01-21T07:34:06.367Z,74.07
2023-01-21T07:36:36.099Z,70.32
2023-01-21T07:39:07.840Z,73.40
2023-01-21T07:41:39.856Z,70.88
2023-01-21T07:44:09.729Z,66.28
2023-01-21T07:46:38.418Z,71.50
2023-01-21T07:49:05.740Z,76.95
2023-01-21T07:51:35.173Z,71.60
2023-01-21T07:54:02.399Z,71.55
2023-01-21T07:56:29.685Z,66.70
2023-01-21T07:59:01.366Z,72.35
2023-01-21T08:01:31.474Z,65.80
2023-01-21T08:03:59.668Z,73.93
2023-01-21T08:06:27.037Z,69.28
2023-01-21T08:08:54.355Z,71.90
2023-01-21T08:11:21.666Z,64.63
2023-01-21T08:13:51.400Z,69.93
2023-01-21T08:16:18.781Z,70.10
2023-01-21T08:18:46.092Z,61.05
2023-01-21T08:21:15.537Z,58.53
2023-01-21T08:23:42.855Z,69.75
2023-01-21T08:26:12.355Z,66.53
2023-01-21T08:28:41.845Z,68.03
2023-01-21T08:31:15.510Z,66.97
2023-01-21T08:33:48.311Z,66.20
2023-01-21T08:36:20.269Z,68.03
2023-01-21T08:38:52.460Z,59.60
2023-01-21T08:41:19.801Z,62.92
2023-01-21T08:43:49.399Z,63.60
2023-01-21T08:46:16.638Z,63.10
2023-01-21T08:48:46.384Z,76.97
2023-01-21T08:51:13.762Z,68.03
2023-01-21T08:53:41.035Z,66.63
2023-01-21T08:56:12.907Z,59.75
2023-01-21T08:58:42.669Z,67.68
2023-01-21T09:01:12.435Z,62.85
2023-01-21T09:03:42.187Z,58.20
2023-01-21T09:06:11.959Z,55.10
2023-01-21T09:08:42.152Z,56.38
2023-01-21T09:11:10.236Z,64.65
2023-01-21T09:13:39.193Z,53.05
2023-01-21T09:16:12.432Z,52.40
2023-01-21T09:21:11.007Z,53.92
2023-01-21T09:23:41.202Z,51.58
2023-01-21T09:26:22.319Z,42.47
2023-01-21T09:28:57.278Z,43.33
2023-01-21T09:31:26.472Z,47.50
2023-01-21T09:33:58.019Z,41.42
2023-01-21T09:36:32.207Z,46.65
2023-01-21T09:38:59.837Z,60.25
2023-01-21T09:41:51.395Z,40.42
2023-01-21T09:44:37.833Z,45.00
2023-01-21T09:47:24.810Z,35.50
2023-01-21T09:50:07.964Z,43.75
2023-01-21T09:52:41.213Z,51.28
2023-01-21T09:55:35.501Z,39.63
2023-01-21T09:58:16.349Z,34.13
2023-01-21T10:01:08.566Z,46.88
2023-01-21T10:03:50.338Z,40.95
2023-01-21T10:06:30.227Z,37.20
2023-01-21T10:09:21.554Z,39.97
2023-01-21T10:12:07.064Z,47.22
2023-01-21T10:14:39.732Z,39.88
2023-01-21T10:17:39.118Z,37.88
2023-01-21T10:20:12.706Z,36.38
2023-01-21T10:22:48.125Z,42.90
2023-01-21T10:25:22.975Z,37.63
2023-01-21T10:27:52.393Z,37.88
2023-01-21T10:30:26.614Z,39.00
2023-01-21T10:32:58.419Z,44.13
2023-01-21T10:35:56.467Z,37.28
2023-01-21T10:38:23.774Z,36.83
2023-01-21T10:41:17.530Z,39.25
2023-01-21T10:43:53.454Z,38.17
2023-01-21T10:47:01.979Z,37.78
2023-01-21T10:49:44.373Z,36.88
2023-01-21T10:52:48.312Z,38.90
2023-01-21T10:55:24.075Z,39.92
2023-01-21T10:58:03.615Z,48.22
2023-01-21T11:00:40.648Z,49.47
2023-01-21T11:03:41.446Z,37.17
2023-01-21T11:06:13.727Z,38.40
2023-01-21T11:08:46.687Z,41.65
2023-01-21T11:11:20.795Z,37.95
2023-01-21T11:13:48.049Z,37.80
2023-01-21T11:16:36.188Z,39.17
2023-01-21T11:19:06.472Z,42.80
2023-01-21T11:21:34.242Z,38.03
2023-01-21T11:24:06.199Z,41.85
2023-01-21T11:26:48.793Z,40.97
2023-01-21T11:29:18.210Z,46.63
2023-01-21T11:31:49.048Z,38.60
2023-01-21T11:34:23.522Z,46.38
2023-01-21T11:37:21.969Z,44.58
2023-01-21T11:39:56.726Z,45.55
2023-01-21T11:42:24.801Z,51.90
2023-01-21T11:45:26.615Z,49.80
2023-01-21T11:47:54.218Z,55.05
2023-01-21T11:50:37.746Z,56.15
2023-01-21T11:55:59.618Z,55.55
2023-01-21T11:58:31.435Z,58.65
2023-01-21T12:01:01.699Z,62.63
2023-01-21T12:03:45.727Z,59.17
2023-01-21T12:06:44.962Z,62.92
2023-01-21T12:09:18.263Z,63.95
2023-01-21T12:14:18.893Z,60.97
2023-01-21T12:17:06.334Z,67.15
2023-01-21T12:19:36.428Z,60.22
2023-01-21T12:22:22.359Z,63.38
2023-01-21T12:25:13.713Z,90.78
2023-01-21T12:27:53.084Z,80.43
2023-01-21T12:30:23.151Z,57.83
2023-01-21T12:33:22.597Z,74.75
2023-01-21T12:35:55.002Z,75.00
2023-01-21T12:38:46.953Z,57.87
2023-01-21T12:41:30.841Z,53.10
2023-01-21T12:44:20.110Z,59.53
2023-01-21T12:46:54.162Z,64.78
2023-01-21T12:49:29.297Z,62.10
2023-01-21T12:52:05.427Z,56.75
2023-01-21T12:55:01.736Z,59.78
2023-01-21T12:57:53.625Z,83.95
2023-01-21T13:00:34.799Z,57.63
2023-01-21T13:03:31.369Z,60.83
2023-01-21T13:06:14.781Z,58.95
2023-01-21T13:08:50.004Z,60.42
2023-01-21T13:11:26.157Z,65.50
2023-01-21T13:14:07.663Z,55.40
2023-01-21T13:16:52.898Z,59.63
2023-01-21T13:19:20.427Z,54.50
2023-01-21T13:22:18.392Z,54.75
2023-01-21T13:25:04.871Z,64.35
2023-01-21T13:27:56.085Z,56.35
2023-01-21T13:30:29.289Z,60.25
2023-01-21T13:35:52.281Z,52.50
2023-01-21T13:38:34.947Z,60.30
2023-01-21T13:41:04.627Z,61.43
2023-01-21T13:44:14.105Z,51.80
2023-01-21T13:47:09.074Z,55.65
2023-01-21T13:49:55.680Z,54.78
2023-01-21T13:52:54.256Z,52.75
2023-01-21T13:55:30.717Z,49.83
2023-01-21T13:58:03.973Z,49.70
2023-01-21T14:03:28.562Z,51.47
2023-01-21T14:06:21.522Z,49.83
2023-01-21T14:09:00.937Z,48.73
2023-01-21T14:11:48.319Z,48.17
2023-01-21T14:14:45.819Z,48.60
2023-01-21T14:18:00.867Z,43.25
2023-01-21T14:20:52.242Z,39.50
2023-01-21T14:23:44.894Z,43.50
2023-01-21T14:26:43.539Z,42.40
2023-01-21T14:29:25.595Z,42.13
2023-01-21T14:31:58.394Z,37.72
2023-01-21T14:34:33.551Z,39.83
2023-01-21T14:37:42.172Z,34.72
2023-01-21T14:40:36.111Z,38.17
2023-01-21T14:43:08.536Z,38.30
2023-01-21T14:46:27.243Z,38.40
2023-01-21T14:49:12.059Z,42.88
2023-01-21T14:51:49.675Z,47.15
2023-01-21T14:54:23.375Z,43.42
2023-01-21T14:57:17.375Z,41.92
2023-01-21T14:59:49.456Z,46.08
2023-01-21T15:02:27.196Z,43.35
2023-01-21T15:05:04.522Z,46.00
2023-01-21T15:07:39.151Z,40.38
2023-01-21T15:10:16.477Z,40.15
2023-01-21T15:12:55.253Z,40.88
2023-01-21T15:15:36.945Z,43.63
2023-01-21T15:18:27.695Z,46.28
2023-01-21T15:20:58.652Z,40.75
2023-01-21T15:23:35.790Z,39.20
2023-01-21T15:26:19.298Z,43.42
2023-01-21T15:28:52.197Z,42.65
2023-01-21T15:31:23.674Z,45.67
2023-01-21T15:34:02.925Z,43.85
2023-01-21T15:36:32.757Z,50.33
2023-01-21T15:39:12.247Z,43.92
2023-01-21T15:42:16.195Z,42.63
2023-01-21T15:45:02.943Z,48.70
2023-01-21T15:47:52.111Z,47.03
2023-01-21T15:50:30.151Z,41.10
2023-01-21T15:53:22.033Z,79.72
2023-01-21T15:56:10.828Z,69.53
2023-01-21T15:59:10.221Z,57.42
2023-01-21T16:01:41.371Z,46.10
2023-01-21T16:04:35.863Z,42.53
2023-01-21T16:07:18.017Z,45.08
2023-01-21T16:09:55.253Z,49.65
2023-01-21T16:12:40.519Z,46.20
2023-01-21T16:15:32.453Z,45.70
2023-01-21T16:18:33.612Z,43.78
2023-01-21T16:21:02.910Z,39.10
2023-01-21T16:23:35.899Z,41.90
2023-01-21T16:26:06.178Z,41.88
2023-01-21T16:28:45.713Z,44.00
2023-01-21T16:31:13.125Z,43.90
2023-01-21T16:33:40.723Z,39.60
2023-01-21T16:36:14.243Z,45.72
2023-01-21T16:38:43.831Z,46.13
2023-01-21T16:41:11.059Z,44.70
2023-01-21T16:43:52.515Z,43.53
2023-01-21T16:46:34.920Z,39.58
2023-01-21T16:49:04.875Z,44.10
2023-01-21T16:51:35.676Z,43.28
2023-01-21T16:54:30.899Z,48.85
2023-01-21T16:57:01.002Z,41.40
2023-01-21T16:59:29.672Z,43.28
2023-01-21T17:02:00.273Z,36.28
2023-01-21T17:04:28.614Z,42.72
2023-01-21T17:06:56.544Z,47.40
2023-01-21T17:09:38.833Z,49.45
2023-01-21T17:12:08.847Z,39.67
2023-01-21T17:14:37.517Z,45.78
2023-01-21T17:17:07.978Z,52.78
2023-01-21T17:19:42.035Z,49.78
2023-01-21T17:22:18.586Z,54.45
2023-01-21T17:25:04.440Z,48.08
2023-01-21T17:27:33.302Z,44.15
2023-01-21T17:30:30.700Z,47.92
2023-01-21T17:33:02.526Z,49.35
2023-01-21T17:35:33.554Z,51.15
2023-01-21T17:38:03.183Z,52.65
2023-01-21T17:40:51.654Z,44.97
2023-01-21T17:43:24.455Z,52.80
2023-01-21T17:45:58.940Z,49.17
2023-01-21T17:48:33.481Z,54.65
2023-01-21T17:51:14.593Z,47.25
2023-01-21T17:53:49.318Z,49.42
2023-01-21T17:56:36.122Z,58.08
2023-01-21T17:59:03.609Z,45.97
2023-01-21T18:01:31.349Z,47.95
2023-01-21T18:04:01.019Z,51.60
2023-01-21T18:06:33.830Z,51.15
2023-01-21T18:09:04.297Z,47.35
2023-01-21T18:11:31.582Z,50.35
2023-01-21T18:14:01.526Z,49.03
2023-01-21T18:16:28.887Z,54.53
2023-01-21T18:18:56.347Z,49.45
2023-01-21T18:21:23.737Z,55.28
2023-01-21T18:23:51.281Z,52.95
2023-01-21T18:26:28.722Z,51.15
2023-01-21T18:28:58.693Z,57.90
2023-01-21T18:31:26.132Z,55.10
2023-01-21T18:33:53.548Z,52.65
2023-01-21T18:36:23.087Z,51.92
2023-01-21T18:38:50.377Z,57.78
2023-01-21T18:41:17.644Z,49.53
2023-01-21T18:43:44.982Z,50.35
2023-01-21T18:46:16.368Z,54.10
2023-01-21T18:48:43.829Z,56.22
2023-01-21T18:51:13.297Z,49.83
2023-01-21T18:53:40.618Z,52.60
2023-01-21T18:56:12.752Z,57.25
2023-01-21T18:58:40.193Z,50.03
2023-01-21T19:01:21.047Z,59.30
2023-01-21T19:03:52.493Z,63.47
2023-01-21T19:06:21.929Z,53.97
2023-01-21T19:08:51.620Z,52.97
2023-01-21T19:11:19.009Z,56.38
2023-01-21T19:13:46.448Z,60.47
2023-01-21T19:16:16.911Z,54.30
2023-01-21T19:18:44.508Z,62.58
2023-01-21T19:21:12.480Z,58.25
2023-01-21T19:23:42.254Z,59.33
2023-01-21T19:26:14.566Z,55.65
2023-01-21T19:28:42.233Z,53.42
2023-01-21T19:31:09.627Z,54.72
2023-01-21T19:33:36.964Z,62.00
2023-01-21T19:36:15.981Z,59.42
2023-01-21T19:38:58.751Z,55.65
2023-01-21T19:41:26.108Z,58.20
2023-01-21T19:43:55.704Z,70.97
2023-01-21T19:46:23.900Z,60.42
2023-01-21T19:48:53.558Z,63.17
2023-01-21T19:51:23.356Z,62.10
2023-01-21T19:53:50.657Z,65.43
2023-01-21T19:56:23.706Z,75.18
2023-01-21T19:58:51.258Z,52.40
2023-01-21T20:01:20.978Z,59.58
2023-01-21T20:03:59.692Z,61.15
2023-01-21T20:06:30.065Z,63.33
2023-01-21T20:09:00.241Z,58.40
2023-01-21T20:11:27.675Z,59.08
2023-01-21T20:13:57.043Z,56.35
2023-01-21T20:16:27.350Z,60.78
2023-01-21T20:18:56.167Z,55.97
2023-01-21T20:21:25.678Z,50.05
2023-01-21T20:23:55.051Z,59.78
2023-01-21T20:26:27.274Z,60.95
2023-01-21T20:28:54.689Z,58.55
2023-01-21T20:31:22.157Z,60.00
2023-01-21T20:33:51.849Z,62.58
2023-01-21T20:36:25.904Z,50.85
2023-01-21T20:38:54.367Z,56.15
2023-01-21T20:41:21.853Z,55.03
2023-01-21T20:43:49.116Z,58.88
2023-01-21T20:46:25.322Z,71.50
2023-01-21T20:48:52.829Z,55.95
2023-01-21T20:51:22.919Z,61.50
2023-01-21T20:53:52.695Z,52.90
2023-01-21T20:56:27.932Z,56.05
2023-01-21T20:58:55.197Z,64.53
2023-01-21T21:01:26.719Z,59.50
2023-01-21T21:03:54.009Z,70.63
2023-01-21T21:06:29.042Z,65.30
2023-01-21T21:08:58.975Z,74.65
2023-01-21T21:11:26.305Z,64.85
2023-01-21T21:13:53.578Z,72.88
2023-01-21T21:16:31.757Z,59.03
2023-01-21T21:19:01.283Z,60.83
2023-01-21T21:21:31.066Z,61.50
2023-01-21T21:23:58.348Z,60.28
2023-01-21T21:26:29.087Z,64.22
2023-01-21T21:28:57.807Z,56.38
2023-01-21T21:31:27.833Z,59.97
2023-01-21T21:33:57.330Z,61.13
2023-01-21T21:36:24.981Z,57.33
2023-01-21T21:38:55.725Z,64.47
2023-01-21T21:41:43.251Z,61.92
2023-01-21T21:44:11.981Z,63.28
2023-01-21T21:46:58.282Z,62.30
2023-01-21T21:49:28.313Z,59.15
2023-01-21T21:52:00.125Z,51.60
2023-01-21T21:54:27.523Z,54.72
2023-01-21T21:56:55.161Z,58.92
2023-01-21T21:59:24.979Z,57.28
2023-01-21T22:01:54.469Z,51.90
2023-01-21T22:04:24.178Z,57.63
2023-01-21T22:06:51.695Z,54.35
2023-01-21T22:09:19.256Z,60.88
2023-01-21T22:11:48.688Z,48.15
2023-01-21T22:14:18.466Z,54.35
2023-01-21T22:16:45.943Z,60.88
2023-01-21T22:19:13.355Z,58.05
2023-01-21T22:21:40.696Z,57.10
2023-01-21T22:24:08.290Z,55.50
2023-01-21T22:26:36.077Z,58.80
2023-01-21T22:29:09.145Z,58.08
2023-01-21T22:31:36.523Z,47.05
2023-01-21T22:34:03.866Z,42.38
2023-01-21T22:36:33.630Z,43.85
2023-01-21T22:39:01.087Z,40.63
2023-01-21T22:41:33.855Z,42.90
2023-01-21T22:44:03.277Z,46.70
2023-01-21T22:46:34.120Z,40.83
2023-01-21T22:49:06.736Z,40.45
2023-01-21T22:51:39.060Z,41.17
2023-01-21T22:54:08.918Z,41.60
2023-01-21T22:56:50.857Z,46.60
2023-01-21T22:59:19.269Z,34.13
2023-01-21T23:01:51.518Z,46.30
2023-01-21T23:04:18.919Z,42.77
2023-01-21T23:06:51.102Z,42.97
2023-01-21T23:09:18.412Z,53.80
2023-01-21T23:11:45.698Z,50.10
2023-01-21T23:14:17.959Z,46.65
2023-01-21T23:16:48.290Z,36.90
2023-01-21T23:19:19.966Z,42.30
2023-01-21T23:21:49.353Z,44.55
2023-01-21T23:24:16.658Z,43.05
2023-01-21T23:26:46.369Z,43.38
2023-01-21T23:29:15.819Z,49.20
2023-01-21T23:31:43.350Z,48.13
2023-01-21T23:34:14.288Z,48.00
2023-01-21T23:36:41.526Z,45.35
2023-01-21T23:39:08.921Z,50.72
2023-01-21T23:41:36.210Z,47.72
2023-01-21T23:44:04.147Z,49.60
2023-01-21T23:46:31.449Z,51.95
2023-01-21T23:49:01.258Z,49.00
2023-01-21T23:51:28.646Z,58.83
2023-01-21T23:53:58.845Z,51.90
2023-01-21T23:56:26.647Z,43.58
2023-01-21T23:58:54.396Z,45.80
